createdAt,value
2022-10-11T00:00:39.167Z,2.30
2022-10-11T00:03:06.265Z,2.60
2022-10-11T00:05:35.603Z,1.85
2022-10-11T00:08:05.448Z,2.33
2022-10-11T00:12:59.490Z,2.35
2022-10-11T00:15:26.213Z,2.33
2022-10-11T00:17:53.001Z,2.53
2022-10-11T00:20:19.939Z,2.08
2022-10-11T00:22:49.501Z,3.15
2022-10-11T00:25:16.835Z,2.75
2022-10-11T00:27:43.576Z,2.55
2022-10-11T00:30:13.355Z,1.65
2022-10-11T00:32:40.341Z,2.30
2022-10-11T00:35:07.484Z,2.55
2022-10-11T00:37:37.635Z,2.47
2022-10-11T00:40:08.372Z,1.98
2022-10-11T00:42:35.283Z,2.30
2022-10-11T00:45:26.755Z,1.85
2022-10-11T00:47:58.728Z,2.38
2022-10-11T00:50:28.694Z,2.10
2022-10-11T00:55:31.297Z,1.80
2022-10-11T00:58:00.866Z,2.35
2022-10-11T01:00:27.803Z,2.97
2022-10-11T01:02:57.121Z,1.98
2022-10-11T01:05:29.748Z,2.88
2022-10-11T01:08:00.106Z,2.15
2022-10-11T01:10:28.261Z,2.13
2022-10-11T01:13:15.662Z,1.88
2022-10-11T01:16:31.879Z,2.25
2022-10-11T01:19:26.646Z,2.70
2022-10-11T01:22:12.931Z,1.63
2022-10-11T01:24:42.298Z,1.88
2022-10-11T01:27:11.988Z,2.70
2022-10-11T01:30:09.629Z,1.85
2022-10-11T01:33:05.116Z,1.98
2022-10-11T01:35:52.237Z,1.80
2022-10-11T01:38:31.069Z,2.25
2022-10-11T01:41:08.144Z,2.28
2022-10-11T01:43:36.297Z,2.25
2022-10-11T01:46:07.820Z,2.25
2022-10-11T01:48:49.038Z,2.00
2022-10-11T01:51:16.080Z,2.08
2022-10-11T01:54:20.187Z,2.83
2022-10-11T01:56:59.080Z,2.03
2022-10-11T01:59:41.672Z,2.97
2022-10-11T02:02:14.288Z,1.77
2022-10-11T02:04:50.795Z,2.60
2022-10-11T02:07:31.304Z,2.30
2022-10-11T02:10:24.560Z,2.08
2022-10-11T02:13:03.124Z,1.95
2022-10-11T02:15:33.779Z,2.97
2022-10-11T02:18:07.152Z,2.45
2022-10-11T02:20:38.076Z,2.80
2022-10-11T02:23:10.695Z,2.58
2022-10-11T02:25:38.930Z,2.58
2022-10-11T02:28:11.798Z,2.00
2022-10-11T02:30:40.690Z,2.20
2022-10-11T02:33:11.470Z,2.15
2022-10-11T02:35:44.403Z,2.25
2022-10-11T02:38:37.408Z,2.22
2022-10-11T02:41:30.300Z,2.65
2022-10-11T02:44:02.805Z,2.10
2022-10-11T02:46:30.864Z,2.35
2022-10-11T02:49:00.824Z,2.35
2022-10-11T02:54:01.039Z,2.13
2022-10-11T02:56:27.736Z,2.00
2022-10-11T02:58:54.391Z,1.88
2022-10-11T03:01:23.612Z,2.00
2022-10-11T03:03:50.636Z,2.05
2022-10-11T03:06:17.294Z,2.03
2022-10-11T03:08:43.988Z,2.25
2022-10-11T03:11:10.640Z,2.00
2022-10-11T03:13:37.324Z,1.70
2022-10-11T03:16:04.191Z,2.10
2022-10-11T03:18:31.456Z,2.00
2022-10-11T03:21:00.538Z,2.63
2022-10-11T03:23:27.333Z,1.83
2022-10-11T03:25:54.164Z,1.88
2022-10-11T03:28:21.170Z,2.20
2022-10-11T03:30:48.864Z,2.35
2022-10-11T03:33:15.759Z,2.03
2022-10-11T03:35:48.054Z,2.17
2022-10-11T03:38:19.376Z,1.90
2022-10-11T03:40:46.200Z,2.13
2022-10-11T03:43:15.429Z,2.05
2022-10-11T03:45:44.675Z,1.80
2022-10-11T03:48:12.065Z,2.35
2022-10-11T03:50:39.199Z,2.35
2022-10-11T03:53:06.797Z,2.15
2022-10-11T03:55:33.591Z,2.17
2022-10-11T03:58:00.611Z,2.30
2022-10-11T04:00:27.293Z,2.33
2022-10-11T04:02:54.018Z,1.88
2022-10-11T04:05:20.708Z,2.05
2022-10-11T04:07:47.609Z,1.70
2022-10-11T04:10:14.305Z,2.30
2022-10-11T04:12:43.871Z,2.00
2022-10-11T04:15:13.314Z,2.20
2022-10-11T04:17:40.741Z,1.60
2022-10-11T04:20:08.071Z,1.83
2022-10-11T04:22:34.801Z,2.03
2022-10-11T04:25:01.520Z,2.92
2022-10-11T04:27:29.099Z,2.22
2022-10-11T04:29:55.944Z,2.63
2022-10-11T04:32:22.634Z,2.35
2022-10-11T04:34:49.276Z,2.50
2022-10-11T04:37:18.205Z,2.00
2022-10-11T04:39:45.060Z,1.67
2022-10-11T04:42:11.773Z,2.15
2022-10-11T04:44:40.907Z,2.47
2022-10-11T04:47:07.601Z,1.90
2022-10-11T04:49:34.388Z,1.92
2022-10-11T04:52:03.675Z,2.20
2022-10-11T04:54:35.110Z,2.10
2022-10-11T04:57:01.753Z,1.98
2022-10-11T04:59:30.939Z,1.92
2022-10-11T05:01:57.754Z,2.00
2022-10-11T05:04:24.444Z,2.10
2022-10-11T05:06:53.322Z,2.30
2022-10-11T05:09:21.686Z,2.25
2022-10-11T05:11:48.412Z,3.90
2022-10-11T05:14:15.159Z,1.90
2022-10-11T05:16:44.048Z,2.90
2022-10-11T05:19:10.706Z,2.90
2022-10-11T05:21:37.376Z,2.80
2022-10-11T05:24:04.170Z,2.22
2022-10-11T05:26:30.976Z,2.05
2022-10-11T05:28:57.679Z,2.22
2022-10-11T05:31:24.712Z,2.83
2022-10-11T05:33:51.395Z,2.92
2022-10-11T05:36:18.336Z,2.25
2022-10-11T05:38:49.452Z,3.20
2022-10-11T05:41:16.581Z,3.05
2022-10-11T05:43:44.672Z,2.95
2022-10-11T05:46:14.167Z,2.45
2022-10-11T05:48:41.102Z,2.65
2022-10-11T05:51:10.339Z,2.92
2022-10-11T05:53:38.147Z,3.22
2022-10-11T05:56:07.997Z,3.20
2022-10-11T05:58:37.323Z,2.92
2022-10-11T06:01:06.536Z,3.20
2022-10-11T06:03:33.268Z,4.18
2022-10-11T06:06:02.902Z,3.47
2022-10-11T06:08:34.875Z,4.22
2022-10-11T06:11:12.279Z,4.13
2022-10-11T06:13:42.161Z,5.85
2022-10-11T06:16:11.999Z,5.53
2022-10-11T06:18:41.100Z,6.10
2022-10-11T06:21:07.804Z,6.13
2022-10-11T06:23:34.504Z,5.63
2022-10-11T06:26:10.510Z,4.95
2022-10-11T06:28:37.781Z,6.35
2022-10-11T06:31:05.639Z,5.70
2022-10-11T06:33:32.861Z,7.15
2022-10-11T06:36:08.379Z,6.15
2022-10-11T06:38:35.200Z,6.30
2022-10-11T06:41:19.592Z,6.70
2022-10-11T06:43:46.505Z,6.32
2022-10-11T06:46:16.363Z,7.85
2022-10-11T06:48:44.609Z,8.18
2022-10-11T06:51:12.170Z,7.38
2022-10-11T06:53:38.994Z,7.13
2022-10-11T06:56:08.882Z,7.15
2022-10-11T06:58:36.631Z,7.57
2022-10-11T07:01:09.084Z,7.32
2022-10-11T07:03:36.130Z,10.48
2022-10-11T07:06:11.922Z,10.50
2022-10-11T07:08:38.788Z,10.38
2022-10-11T07:11:09.259Z,10.32
2022-10-11T07:13:36.930Z,12.23
2022-10-11T07:16:05.527Z,10.88
2022-10-11T07:18:32.931Z,11.98
2022-10-11T07:21:04.112Z,12.85
2022-10-11T07:23:33.199Z,12.60
2022-10-11T07:26:03.656Z,14.47
2022-10-11T07:28:31.366Z,16.85
2022-10-11T07:30:58.715Z,16.52
2022-10-11T07:33:25.445Z,13.68
2022-10-11T07:35:56.444Z,14.25
2022-10-11T07:38:23.094Z,14.73
2022-10-11T07:40:49.940Z,13.88
2022-10-11T07:43:18.787Z,12.48
2022-10-11T07:45:48.650Z,13.60
2022-10-11T07:50:49.044Z,12.20
2022-10-11T07:53:15.727Z,15.13
2022-10-11T07:55:42.474Z,13.73
2022-10-11T07:58:15.511Z,13.65
2022-10-11T08:00:44.859Z,13.50
2022-10-11T08:03:11.591Z,14.15
2022-10-11T08:05:39.094Z,14.73
2022-10-11T08:08:06.115Z,13.38
2022-10-11T08:10:38.229Z,13.65
2022-10-11T08:13:05.353Z,13.15
2022-10-11T08:15:32.045Z,12.23
2022-10-11T08:17:58.703Z,13.73
2022-10-11T08:20:25.390Z,13.13
2022-10-11T08:22:52.071Z,12.73
2022-10-11T08:25:21.044Z,12.88
2022-10-11T08:27:47.698Z,10.10
2022-10-11T08:30:14.491Z,9.77
2022-10-11T08:32:41.145Z,11.32
2022-10-11T08:35:10.477Z,11.23
2022-10-11T08:37:37.247Z,12.30
2022-10-11T08:40:05.887Z,11.48
2022-10-11T08:42:41.286Z,11.10
2022-10-11T08:45:18.998Z,10.45
2022-10-11T08:47:46.727Z,11.18
2022-10-11T08:50:23.812Z,10.35
2022-10-11T08:52:59.472Z,10.52
2022-10-11T08:55:45.012Z,10.20
2022-10-11T08:58:19.485Z,9.63
2022-10-11T09:00:49.228Z,10.93
2022-10-11T09:03:42.947Z,9.93
2022-10-11T09:06:21.578Z,9.73
2022-10-11T09:09:07.260Z,10.35
2022-10-11T09:11:58.455Z,8.70
2022-10-11T09:14:28.047Z,9.77
2022-10-11T09:17:14.672Z,9.63
2022-10-11T09:19:56.345Z,11.48
2022-10-11T09:22:51.015Z,9.57
2022-10-11T09:25:54.793Z,9.25
2022-10-11T09:28:56.213Z,9.95
2022-10-11T09:31:27.702Z,9.30
2022-10-11T09:33:55.648Z,8.73
2022-10-11T09:36:41.712Z,9.30
2022-10-11T09:39:48.439Z,11.68
2022-10-11T09:42:15.381Z,10.43
2022-10-11T09:44:50.610Z,10.38
2022-10-11T09:47:24.031Z,9.05
2022-10-11T09:50:06.662Z,10.38
2022-10-11T09:52:35.771Z,9.13
2022-10-11T09:55:03.511Z,10.85
2022-10-11T09:57:54.101Z,10.68
2022-10-11T10:00:24.163Z,9.13
2022-10-11T10:02:52.001Z,8.32
2022-10-11T10:05:28.538Z,8.45
2022-10-11T10:08:01.568Z,9.40
2022-10-11T10:10:39.605Z,8.25
2022-10-11T10:13:20.310Z,9.07
2022-10-11T10:15:49.326Z,8.35
2022-10-11T10:18:36.261Z,7.30
2022-10-11T10:21:04.338Z,7.32
2022-10-11T10:23:34.916Z,7.60
2022-10-11T10:26:22.825Z,7.22
2022-10-11T10:28:55.692Z,7.53
2022-10-11T10:31:25.697Z,6.68
2022-10-11T10:33:55.486Z,6.93
2022-10-11T10:39:15.615Z,6.90
2022-10-11T10:41:44.611Z,7.60
2022-10-11T10:44:11.720Z,7.33
2022-10-11T10:46:58.645Z,7.35
2022-10-11T10:49:58.570Z,6.43
2022-10-11T10:52:47.174Z,6.82
2022-10-11T10:55:25.229Z,6.63
2022-10-11T10:58:21.120Z,6.55
2022-10-11T11:00:52.891Z,6.50
2022-10-11T11:03:41.450Z,6.28
2022-10-11T11:06:15.923Z,7.13
2022-10-11T11:08:49.017Z,6.38
2022-10-11T11:11:35.957Z,8.52
2022-10-11T11:14:02.550Z,9.10
2022-10-11T11:16:32.019Z,8.48
2022-10-11T11:19:03.548Z,7.93
2022-10-11T11:22:06.374Z,7.20
2022-10-11T11:24:38.829Z,6.72
2022-10-11T11:27:20.537Z,7.38
2022-10-11T11:30:02.989Z,8.13
2022-10-11T11:33:00.493Z,8.25
2022-10-11T11:35:37.865Z,7.10
2022-10-11T11:38:14.249Z,7.10
2022-10-11T11:40:51.814Z,7.15
2022-10-11T11:43:32.756Z,7.07
2022-10-11T11:46:22.072Z,6.53
2022-10-11T11:48:52.072Z,4.38
2022-10-11T11:51:27.796Z,5.13
2022-10-11T11:54:36.787Z,4.28
2022-10-11T11:57:11.915Z,3.75
2022-10-11T11:59:52.147Z,3.15
2022-10-11T12:02:39.823Z,2.70
2022-10-11T12:05:08.162Z,2.58
2022-10-11T12:07:48.026Z,2.25
